sensor_id;sensor_type;location;lat;lon;timestamp;temperature;humidity
12870;DHT22;6503;48.572;13.460;2023-03-01T00:01:49;1.50;99.90
12870;DHT22;6503;48.572;13.460;2023-03-01T00:04:16;1.40;99.90
12870;DHT22;6503;48.572;13.460;2023-03-01T00:06:45;1.40;99.90
12870;DHT22;6503;48.572;13.460;2023-03-01T00:09:13;1.40;99.90
12870;DHT22;6503;48.572;13.460;2023-03-01T00:11:40;1.30;99.90
12870;DHT22;6503;48.572;13.460;2023-03-01T00:14:08;1.30;99.90
12870;DHT22;6503;48.572;13.460;2023-03-01T00:16:37;1.30;99.90
12870;DHT22;6503;48.572;13.460;2023-03-01T00:19:06;1.20;99.90
12870;DHT22;6503;48.572;13.460;2023-03-01T00:21:34;1.30;99.90
12870;DHT22;6503;48.572;13.460;2023-03-01T00:24:04;1.20;99.90
12870;DHT22;6503;48.572;13.460;2023-03-01T00:26:31;1.10;99.90
12870;DHT22;6503;48.572;13.460;2023-03-01T00:28:59;1.00;99.90
12870;DHT22;6503;48.572;13.460;2023-03-01T00:31:28;0.90;99.90
12870;DHT22;6503;48.572;13.460;2023-03-01T00:33:58;0.90;99.90
12870;DHT22;6503;48.572;13.460;2023-03-01T00:36:27;1.20;99.90
12870;DHT22;6503;48.572;13.460;2023-03-01T00:38:55;1.00;99.90
12870;DHT22;6503;48.572;13.460;2023-03-01T00:41:24;1.00;99.90
12870;DHT22;6503;48.572;13.460;2023-03-01T00:43:53;1.20;99.90
12870;DHT22;6503;48.572;13.460;2023-03-01T00:46:22;0.90;99.90
12870;DHT22;6503;48.572;13.460;2023-03-01T00:48:50;1.20;99.90
12870;DHT22;6503;48.572;13.460;2023-03-01T00:51:19;0.80;99.90
12870;DHT22;6503;48.572;13.460;2023-03-01T00:53:51;0.70;99.90
12870;DHT22;6503;48.572;13.460;2023-03-01T00:56:21;0.70;99.90
12870;DHT22;6503;48.572;13.460;2023-03-01T00:58:54;0.60;99.90
12870;DHT22;6503;48.572;13.460;2023-03-01T01:01:24;0.60;99.90
12870;DHT22;6503;48.572;13.460;2023-03-01T01:03:55;1.10;99.90
12870;DHT22;6503;48.572;13.460;2023-03-01T01:06:25;0.60;99.90
12870;DHT22;6503;48.572;13.460;2023-03-01T01:08:54;0.70;99.90
12870;DHT22;6503;48.572;13.460;2023-03-01T01:11:24;0.90;99.90
12870;DHT22;6503;48.572;13.460;2023-03-01T01:13:57;0.70;99.90
12870;DHT22;6503;48.572;13.460;2023-03-01T01:16:28;0.30;99.90
12870;DHT22;6503;48.572;13.460;2023-03-01T01:18:56;0.40;99.90
12870;DHT22;6503;48.572;13.460;2023-03-01T01:21:25;0.30;99.90
12870;DHT22;6503;48.572;13.460;2023-03-01T01:23:52;0.60;99.90
12870;DHT22;6503;48.572;13.460;2023-03-01T01:26:22;0.30;99.90
12870;DHT22;6503;48.572;13.460;2023-03-01T01:28:52;1.00;99.90
12870;DHT22;6503;48.572;13.460;2023-03-01T01:31:25;0.10;99.90
12870;DHT22;6503;48.572;13.460;2023-03-01T01:33:55;1.20;99.90
12870;DHT22;6503;48.572;13.460;2023-03-01T01:36:24;0.10;99.90
12870;DHT22;6503;48.572;13.460;2023-03-01T01:38:52;0.50;99.90
12870;DHT22;6503;48.572;13.460;2023-03-01T01:41:20;0.10;99.90
12870;DHT22;6503;48.572;13.460;2023-03-01T01:44:13;0.80;99.90
12870;DHT22;6503;48.572;13.460;2023-03-01T01:46:45;0.10;99.90
12870;DHT22;6503;48.572;13.460;2023-03-01T01:49:27;-0.40;99.90
12870;DHT22;6503;48.572;13.460;2023-03-01T01:52:03;1.10;99.90
12870;DHT22;6503;48.572;13.460;2023-03-01T01:54:37;1.00;99.90
12870;DHT22;6503;48.572;13.460;2023-03-01T01:57:10;0.40;99.90
12870;DHT22;6503;48.572;13.460;2023-03-01T01:59:39;0.00;99.90
12870;DHT22;6503;48.572;13.460;2023-03-01T02:02:09;-0.10;99.90
12870;DHT22;6503;48.572;13.460;2023-03-01T02:04:37;0.20;99.90
12870;DHT22;6503;48.572;13.460;2023-03-01T02:07:10;0.40;99.90
12870;DHT22;6503;48.572;13.460;2023-03-01T02:09:50;0.00;99.90
12870;DHT22;6503;48.572;13.460;2023-03-01T02:12:21;0.00;99.90
12870;DHT22;6503;48.572;13.460;2023-03-01T02:14:50;-0.10;99.90
12870;DHT22;6503;48.572;13.460;2023-03-01T02:17:21;-0.10;99.90
12870;DHT22;6503;48.572;13.460;2023-03-01T02:19:52;0.00;99.90
12870;DHT22;6503;48.572;13.460;2023-03-01T02:22:24;-0.40;99.90
12870;DHT22;6503;48.572;13.460;2023-03-01T02:25:03;-0.10;99.90
12870;DHT22;6503;48.572;13.460;2023-03-01T02:27:38;-0.10;99.90
12870;DHT22;6503;48.572;13.460;2023-03-01T02:30:11;0.30;99.90
12870;DHT22;6503;48.572;13.460;2023-03-01T02:32:40;-0.20;99.90
12870;DHT22;6503;48.572;13.460;2023-03-01T02:35:16;-0.20;99.90
12870;DHT22;6503;48.572;13.460;2023-03-01T02:37:45;-0.20;99.90
12870;DHT22;6503;48.572;13.460;2023-03-01T02:40:17;-0.10;99.90
12870;DHT22;6503;48.572;13.460;2023-03-01T02:42:51;-0.20;99.90
12870;DHT22;6503;48.572;13.460;2023-03-01T02:45:26;0.30;99.90
12870;DHT22;6503;48.572;13.460;2023-03-01T02:47:54;-0.10;99.90
12870;DHT22;6503;48.572;13.460;2023-03-01T02:50:39;-0.10;99.90
12870;DHT22;6503;48.572;13.460;2023-03-01T02:53:19;-0.20;99.90
12870;DHT22;6503;48.572;13.460;2023-03-01T02:55:50;-0.40;99.90
12870;DHT22;6503;48.572;13.460;2023-03-01T02:58:19;-0.30;99.90
12870;DHT22;6503;48.572;13.460;2023-03-01T03:00:48;-0.10;99.90
12870;DHT22;6503;48.572;13.460;2023-03-01T03:03:19;-0.40;99.90
12870;DHT22;6503;48.572;13.460;2023-03-01T03:05:48;-0.40;99.90
12870;DHT22;6503;48.572;13.460;2023-03-01T03:08:15;-0.50;99.90
12870;DHT22;6503;48.572;13.460;2023-03-01T03:10:49;-0.80;99.90
12870;DHT22;6503;48.572;13.460;2023-03-01T03:13:16;0.00;99.90
12870;DHT22;6503;48.572;13.460;2023-03-01T03:15:44;-0.30;99.90
12870;DHT22;6503;48.572;13.460;2023-03-01T03:18:16;-0.50;99.90
12870;DHT22;6503;48.572;13.460;2023-03-01T03:20:44;-0.50;99.90
12870;DHT22;6503;48.572;13.460;2023-03-01T03:23:12;0.10;99.90
12870;DHT22;6503;48.572;13.460;2023-03-01T03:25:40;-0.60;99.90
12870;DHT22;6503;48.572;13.460;2023-03-01T03:28:07;-0.70;99.90
12870;DHT22;6503;48.572;13.460;2023-03-01T03:30:38;-0.20;99.90
12870;DHT22;6503;48.572;13.460;2023-03-01T03:33:07;-0.60;99.90
12870;DHT22;6503;48.572;13.460;2023-03-01T03:35:40;-0.60;99.90
12870;DHT22;6503;48.572;13.460;2023-03-01T03:38:09;-0.70;99.90
12870;DHT22;6503;48.572;13.460;2023-03-01T03:40:43;-0.70;99.90
12870;DHT22;6503;48.572;13.460;2023-03-01T03:43:12;-0.10;99.90
12870;DHT22;6503;48.572;13.460;2023-03-01T03:45:40;-0.50;99.90
12870;DHT22;6503;48.572;13.460;2023-03-01T03:48:09;0.40;99.90
12870;DHT22;6503;48.572;13.460;2023-03-01T03:50:40;-1.20;99.90
12870;DHT22;6503;48.572;13.460;2023-03-01T03:53:10;-0.60;99.90
12870;DHT22;6503;48.572;13.460;2023-03-01T03:55:37;-0.60;99.90
12870;DHT22;6503;48.572;13.460;2023-03-01T03:58:11;-0.60;99.90
12870;DHT22;6503;48.572;13.460;2023-03-01T04:00:43;-0.70;99.90
12870;DHT22;6503;48.572;13.460;2023-03-01T04:03:13;-0.70;99.90
12870;DHT22;6503;48.572;13.460;2023-03-01T04:05:47;-0.70;99.90
12870;DHT22;6503;48.572;13.460;2023-03-01T04:08:16;-0.80;99.90
12870;DHT22;6503;48.572;13.460;2023-03-01T04:10:47;-0.90;99.90
12870;DHT22;6503;48.572;13.460;2023-03-01T04:13:18;-0.90;99.90
12870;DHT22;6503;48.572;13.460;2023-03-01T04:15:48;-0.90;99.90
12870;DHT22;6503;48.572;13.460;2023-03-01T04:18:17;-0.80;99.90
12870;DHT22;6503;48.572;13.460;2023-03-01T04:20:47;-0.80;99.90
12870;DHT22;6503;48.572;13.460;2023-03-01T04:23:20;-0.80;99.90
12870;DHT22;6503;48.572;13.460;2023-03-01T04:25:51;-0.50;99.90
12870;DHT22;6503;48.572;13.460;2023-03-01T04:28:21;-0.50;99.90
12870;DHT22;6503;48.572;13.460;2023-03-01T04:30:50;-0.70;99.90
12870;DHT22;6503;48.572;13.460;2023-03-01T04:33:19;-1.00;99.90
12870;DHT22;6503;48.572;13.460;2023-03-01T04:35:50;-0.90;99.90
12870;DHT22;6503;48.572;13.460;2023-03-01T04:38:21;-1.00;99.90
12870;DHT22;6503;48.572;13.460;2023-03-01T04:40:50;-0.90;99.90
12870;DHT22;6503;48.572;13.460;2023-03-01T04:43:18;-1.00;99.90
12870;DHT22;6503;48.572;13.460;2023-03-01T04:45:47;-0.90;99.90
12870;DHT22;6503;48.572;13.460;2023-03-01T04:48:15;-1.10;99.90
12870;DHT22;6503;48.572;13.460;2023-03-01T04:50:44;-1.00;99.90
12870;DHT22;6503;48.572;13.460;2023-03-01T04:53:16;-0.70;99.90
12870;DHT22;6503;48.572;13.460;2023-03-01T04:55:44;-1.00;99.90
12870;DHT22;6503;48.572;13.460;2023-03-01T04:58:12;-0.50;99.90
12870;DHT22;6503;48.572;13.460;2023-03-01T05:00:39;-0.60;99.90
12870;DHT22;6503;48.572;13.460;2023-03-01T05:03:07;-1.00;99.90
12870;DHT22;6503;48.572;13.460;2023-03-01T05:05:36;-1.10;99.90
12870;DHT22;6503;48.572;13.460;2023-03-01T05:08:07;-0.80;99.90
12870;DHT22;6503;48.572;13.460;2023-03-01T05:10:46;-1.10;99.90
12870;DHT22;6503;48.572;13.460;2023-03-01T05:13:18;-0.90;99.90
12870;DHT22;6503;48.572;13.460;2023-03-01T05:15:49;-0.60;99.90
12870;DHT22;6503;48.572;13.460;2023-03-01T05:18:21;-1.10;99.90
12870;DHT22;6503;48.572;13.460;2023-03-01T05:20:51;-1.10;99.90
12870;DHT22;6503;48.572;13.460;2023-03-01T05:23:24;-0.90;99.90
12870;DHT22;6503;48.572;13.460;2023-03-01T05:25:57;-1.20;99.90
12870;DHT22;6503;48.572;13.460;2023-03-01T05:28:27;-1.40;99.90
12870;DHT22;6503;48.572;13.460;2023-03-01T05:30:55;-1.30;99.90
12870;DHT22;6503;48.572;13.460;2023-03-01T05:33:23;-1.30;99.90
12870;DHT22;6503;48.572;13.460;2023-03-01T05:35:51;-0.90;99.90
12870;DHT22;6503;48.572;13.460;2023-03-01T05:38:20;-1.30;99.90
12870;DHT22;6503;48.572;13.460;2023-03-01T05:40:48;-1.40;99.90
12870;DHT22;6503;48.572;13.460;2023-03-01T05:43:18;-0.70;99.90
12870;DHT22;6503;48.572;13.460;2023-03-01T05:45:46;-0.40;99.90
12870;DHT22;6503;48.572;13.460;2023-03-01T05:48:14;-0.90;99.90
12870;DHT22;6503;48.572;13.460;2023-03-01T05:50:45;-1.00;99.90
12870;DHT22;6503;48.572;13.460;2023-03-01T05:53:15;-1.20;99.90
12870;DHT22;6503;48.572;13.460;2023-03-01T05:55:44;-0.60;99.90
12870;DHT22;6503;48.572;13.460;2023-03-01T05:58:15;-1.00;99.90
12870;DHT22;6503;48.572;13.460;2023-03-01T06:00:45;-1.20;99.90
12870;DHT22;6503;48.572;13.460;2023-03-01T06:03:14;-1.00;99.90
12870;DHT22;6503;48.572;13.460;2023-03-01T06:05:43;-1.20;99.90
12870;DHT22;6503;48.572;13.460;2023-03-01T07:34:28;0.50;99.90
12870;DHT22;6503;48.572;13.460;2023-03-01T07:37:01;0.60;99.90
12870;DHT22;6503;48.572;13.460;2023-03-01T07:40:10;0.70;99.90
12870;DHT22;6503;48.572;13.460;2023-03-01T07:43:20;0.80;99.90
12870;DHT22;6503;48.572;13.460;2023-03-01T07:46:11;0.90;99.90
12870;DHT22;6503;48.572;13.460;2023-03-01T07:52:41;1.10;99.90
12870;DHT22;6503;48.572;13.460;2023-03-01T07:55:38;1.30;99.90
12870;DHT22;6503;48.572;13.460;2023-03-01T07:58:23;1.40;99.90
12870;DHT22;6503;48.572;13.460;2023-03-01T08:01:22;1.60;99.90
12870;DHT22;6503;48.572;13.460;2023-03-01T08:04:07;1.90;99.90
12870;DHT22;6503;48.572;13.460;2023-03-01T08:17:24;2.70;99.90
12870;DHT22;6503;48.572;13.460;2023-03-01T08:23:43;3.10;99.90
12870;DHT22;6503;48.572;13.460;2023-03-01T08:26:26;3.30;99.90
12870;DHT22;6503;48.572;13.460;2023-03-01T08:29:10;3.30;99.90
12870;DHT22;6503;48.572;13.460;2023-03-01T08:31:49;3.40;99.90
12870;DHT22;6503;48.572;13.460;2023-03-01T08:37:46;4.10;99.90
12870;DHT22;6503;48.572;13.460;2023-03-01T08:40:15;3.70;99.90
12870;DHT22;6503;48.572;13.460;2023-03-01T08:42:49;3.80;99.90
12870;DHT22;6503;48.572;13.460;2023-03-01T08:45:20;4.00;99.90
12870;DHT22;6503;48.572;13.460;2023-03-01T08:48:07;4.10;99.90
12870;DHT22;6503;48.572;13.460;2023-03-01T08:51:13;4.20;99.90
12870;DHT22;6503;48.572;13.460;2023-03-01T08:58:01;4.40;99.90
12870;DHT22;6503;48.572;13.460;2023-03-01T09:00:40;4.50;99.90
12870;DHT22;6503;48.572;13.460;2023-03-01T09:03:19;4.60;99.90
12870;DHT22;6503;48.572;13.460;2023-03-01T09:05:50;4.70;99.90
12870;DHT22;6503;48.572;13.460;2023-03-01T09:12:24;4.80;99.90
12870;DHT22;6503;48.572;13.460;2023-03-01T09:15:25;4.80;99.90
12870;DHT22;6503;48.572;13.460;2023-03-01T09:18:10;5.00;99.90
12870;DHT22;6503;48.572;13.460;2023-03-01T09:21:04;5.10;99.90
12870;DHT22;6503;48.572;13.460;2023-03-01T09:23:35;5.10;98.40
12870;DHT22;6503;48.572;13.460;2023-03-01T09:33:13;5.40;99.80
12870;DHT22;6503;48.572;13.460;2023-03-01T09:36:23;5.50;98.10
12870;DHT22;6503;48.572;13.460;2023-03-01T09:39:17;5.70;96.80
12870;DHT22;6503;48.572;13.460;2023-03-01T09:41:50;5.70;95.60
12870;DHT22;6503;48.572;13.460;2023-03-01T09:44:37;5.80;96.30
12870;DHT22;6503;48.572;13.460;2023-03-01T09:47:29;5.90;97.30
12870;DHT22;6503;48.572;13.460;2023-03-01T09:53:42;6.30;94.30
12870;DHT22;6503;48.572;13.460;2023-03-01T09:57:13;6.30;93.10
12870;DHT22;6503;48.572;13.460;2023-03-01T10:00:20;6.20;91.60
12870;DHT22;6503;48.572;13.460;2023-03-01T10:02:59;6.10;93.60
12870;DHT22;6503;48.572;13.460;2023-03-01T10:06:06;6.20;95.90
12870;DHT22;6503;48.572;13.460;2023-03-01T10:12:10;6.50;93.70
12870;DHT22;6503;48.572;13.460;2023-03-01T10:14:55;6.60;93.90
12870;DHT22;6503;48.572;13.460;2023-03-01T10:17:41;6.80;91.40
12870;DHT22;6503;48.572;13.460;2023-03-01T10:20:19;7.00;90.70
12870;DHT22;6503;48.572;13.460;2023-03-01T10:23:00;7.10;90.00
12870;DHT22;6503;48.572;13.460;2023-03-01T10:25:44;7.30;88.20
12870;DHT22;6503;48.572;13.460;2023-03-01T10:31:50;7.60;88.10
12870;DHT22;6503;48.572;13.460;2023-03-01T10:34:55;7.80;79.50
12870;DHT22;6503;48.572;13.460;2023-03-01T10:37:27;8.00;79.80
12870;DHT22;6503;48.572;13.460;2023-03-01T10:43:10;8.30;77.90
12870;DHT22;6503;48.572;13.460;2023-03-01T10:45:53;8.30;76.40
12870;DHT22;6503;48.572;13.460;2023-03-01T10:48:39;8.30;77.10
12870;DHT22;6503;48.572;13.460;2023-03-01T10:51:18;8.50;75.80
12870;DHT22;6503;48.572;13.460;2023-03-01T10:53:49;8.60;75.40
12870;DHT22;6503;48.572;13.460;2023-03-01T10:56:18;8.80;75.20
12870;DHT22;6503;48.572;13.460;2023-03-01T10:58:58;8.80;70.70
12870;DHT22;6503;48.572;13.460;2023-03-01T11:01:30;9.00;72.10
12870;DHT22;6503;48.572;13.460;2023-03-01T11:04:12;9.10;71.00
12870;DHT22;6503;48.572;13.460;2023-03-01T11:06:43;9.20;69.50
12870;DHT22;6503;48.572;13.460;2023-03-01T11:09:34;9.20;69.90
12870;DHT22;6503;48.572;13.460;2023-03-01T11:12:17;9.30;68.00
12870;DHT22;6503;48.572;13.460;2023-03-01T11:14:58;9.30;67.70
12870;DHT22;6503;48.572;13.460;2023-03-01T11:17:49;9.40;67.10
12870;DHT22;6503;48.572;13.460;2023-03-01T11:20:39;9.30;67.70
12870;DHT22;6503;48.572;13.460;2023-03-01T11:23:22;9.40;69.00
12870;DHT22;6503;48.572;13.460;2023-03-01T11:26:10;9.60;69.50
12870;DHT22;6503;48.572;13.460;2023-03-01T11:28:50;9.80;66.30
12870;DHT22;6503;48.572;13.460;2023-03-01T11:31:24;9.90;65.10
12870;DHT22;6503;48.572;13.460;2023-03-01T11:34:28;10.10;66.60
12870;DHT22;6503;48.572;13.460;2023-03-01T11:37:35;10.10;61.20
12870;DHT22;6503;48.572;13.460;2023-03-01T11:40:17;10.30;60.50
12870;DHT22;6503;48.572;13.460;2023-03-01T11:43:00;10.40;60.10
12870;DHT22;6503;48.572;13.460;2023-03-01T11:45:56;10.50;58.50
12870;DHT22;6503;48.572;13.460;2023-03-01T11:48:53;10.50;56.40
12870;DHT22;6503;48.572;13.460;2023-03-01T11:51:46;10.70;57.70
12870;DHT22;6503;48.572;13.460;2023-03-01T11:54:30;10.80;58.50
12870;DHT22;6503;48.572;13.460;2023-03-01T11:57:09;10.90;56.10
12870;DHT22;6503;48.572;13.460;2023-03-01T11:59:51;11.10;54.70
12870;DHT22;6503;48.572;13.460;2023-03-01T12:03:02;11.40;53.00
12870;DHT22;6503;48.572;13.460;2023-03-01T12:05:54;11.20;50.00
12870;DHT22;6503;48.572;13.460;2023-03-01T12:08:35;11.20;54.00
12870;DHT22;6503;48.572;13.460;2023-03-01T12:11:12;11.30;50.90
12870;DHT22;6503;48.572;13.460;2023-03-01T12:14:13;11.50;50.80
12870;DHT22;6503;48.572;13.460;2023-03-01T12:17:07;11.70;48.30
12870;DHT22;6503;48.572;13.460;2023-03-01T12:19:53;11.80;46.90
12870;DHT22;6503;48.572;13.460;2023-03-01T12:22:31;11.70;46.20
12870;DHT22;6503;48.572;13.460;2023-03-01T12:25:28;11.80;48.20
12870;DHT22;6503;48.572;13.460;2023-03-01T12:28:18;11.70;46.20
12870;DHT22;6503;48.572;13.460;2023-03-01T12:31:05;11.80;47.20
12870;DHT22;6503;48.572;13.460;2023-03-01T12:33:45;11.90;45.90
12870;DHT22;6503;48.572;13.460;2023-03-01T12:36:35;12.10;44.00
12870;DHT22;6503;48.572;13.460;2023-03-01T12:39:20;12.30;41.80
12870;DHT22;6503;48.572;13.460;2023-03-01T12:42:03;12.40;39.40
12870;DHT22;6503;48.572;13.460;2023-03-01T12:44:47;12.00;42.20
12870;DHT22;6503;48.572;13.460;2023-03-01T12:47:30;12.00;43.70
12870;DHT22;6503;48.572;13.460;2023-03-01T12:50:03;11.80;44.40
12870;DHT22;6503;48.572;13.460;2023-03-01T12:52:38;12.00;43.20
12870;DHT22;6503;48.572;13.460;2023-03-01T12:55:22;12.10;44.40
12870;DHT22;6503;48.572;13.460;2023-03-01T12:57:52;12.10;40.00
12870;DHT22;6503;48.572;13.460;2023-03-01T13:00:28;12.10;41.50
12870;DHT22;6503;48.572;13.460;2023-03-01T13:03:04;12.00;42.70
12870;DHT22;6503;48.572;13.460;2023-03-01T13:05:42;12.10;43.80
12870;DHT22;6503;48.572;13.460;2023-03-01T13:08:19;12.20;42.30
12870;DHT22;6503;48.572;13.460;2023-03-01T13:10:49;12.20;41.30
12870;DHT22;6503;48.572;13.460;2023-03-01T13:13:22;12.30;42.70
12870;DHT22;6503;48.572;13.460;2023-03-01T13:15:55;12.50;41.60
12870;DHT22;6503;48.572;13.460;2023-03-01T13:18:32;12.40;41.30
12870;DHT22;6503;48.572;13.460;2023-03-01T13:21:02;12.20;40.00
12870;DHT22;6503;48.572;13.460;2023-03-01T13:23:34;12.40;40.60
12870;DHT22;6503;48.572;13.460;2023-03-01T13:26:08;12.40;40.40
12870;DHT22;6503;48.572;13.460;2023-03-01T13:29:00;12.40;39.30
12870;DHT22;6503;48.572;13.460;2023-03-01T13:32:06;12.30;39.60
12870;DHT22;6503;48.572;13.460;2023-03-01T13:35:02;12.10;39.90
12870;DHT22;6503;48.572;13.460;2023-03-01T13:38:44;11.80;41.70
12870;DHT22;6503;48.572;13.460;2023-03-01T13:41:13;11.50;45.90
12870;DHT22;6503;48.572;13.460;2023-03-01T13:43:54;11.40;47.30
12870;DHT22;6503;48.572;13.460;2023-03-01T13:46:46;11.20;50.20
12870;DHT22;6503;48.572;13.460;2023-03-01T13:49:28;11.10;54.60
12870;DHT22;6503;48.572;13.460;2023-03-01T13:51:58;11.00;54.20
12870;DHT22;6503;48.572;13.460;2023-03-01T13:54:30;11.00;55.60
12870;DHT22;6503;48.572;13.460;2023-03-01T13:57:00;11.00;57.20
12870;DHT22;6503;48.572;13.460;2023-03-01T13:59:28;10.90;59.80
12870;DHT22;6503;48.572;13.460;2023-03-01T14:01:57;10.80;58.80
12870;DHT22;6503;48.572;13.460;2023-03-01T14:18:17;10.40;67.20
12870;DHT22;6503;48.572;13.460;2023-03-01T14:21:01;10.50;69.70
12870;DHT22;6503;48.572;13.460;2023-03-01T14:23:55;10.30;69.30
12870;DHT22;6503;48.572;13.460;2023-03-01T14:26:37;10.30;73.40
12870;DHT22;6503;48.572;13.460;2023-03-01T14:36:15;10.20;74.60
12870;DHT22;6503;48.572;13.460;2023-03-01T14:39:23;10.10;74.80
12870;DHT22;6503;48.572;13.460;2023-03-01T14:42:01;9.90;78.10
12870;DHT22;6503;48.572;13.460;2023-03-01T14:44:40;10.00;79.70
12870;DHT22;6503;48.572;13.460;2023-03-01T14:47:31;9.80;79.20
12870;DHT22;6503;48.572;13.460;2023-03-01T14:50:26;9.80;82.60
12870;DHT22;6503;48.572;13.460;2023-03-01T14:53:45;9.60;83.40
12870;DHT22;6503;48.572;13.460;2023-03-01T14:56:47;9.60;85.30
12870;DHT22;6503;48.572;13.460;2023-03-01T14:59:23;9.60;84.00
12870;DHT22;6503;48.572;13.460;2023-03-01T15:02:15;9.60;87.90
12870;DHT22;6503;48.572;13.460;2023-03-01T15:05:24;9.40;91.50
12870;DHT22;6503;48.572;13.460;2023-03-01T15:11:53;9.50;91.90
12870;DHT22;6503;48.572;13.460;2023-03-01T15:14:58;9.60;92.20
12870;DHT22;6503;48.572;13.460;2023-03-01T15:17:56;9.50;92.80
12870;DHT22;6503;48.572;13.460;2023-03-01T15:21:06;9.60;93.30
12870;DHT22;6503;48.572;13.460;2023-03-01T15:24:05;9.50;94.10
12870;DHT22;6503;48.572;13.460;2023-03-01T15:27:02;9.50;94.90
12870;DHT22;6503;48.572;13.460;2023-03-01T15:29:48;9.40;94.70
12870;DHT22;6503;48.572;13.460;2023-03-01T15:35:54;9.30;94.80
12870;DHT22;6503;48.572;13.460;2023-03-01T15:38:51;9.30;97.50
12870;DHT22;6503;48.572;13.460;2023-03-01T15:51:59;9.10;98.60
12870;DHT22;6503;48.572;13.460;2023-03-01T15:55:02;9.00;98.70
12870;DHT22;6503;48.572;13.460;2023-03-01T15:58:18;9.00;98.20
12870;DHT22;6503;48.572;13.460;2023-03-01T16:01:28;8.90;98.10
12870;DHT22;6503;48.572;13.460;2023-03-01T16:04:12;8.90;99.90
12870;DHT22;6503;48.572;13.460;2023-03-01T16:10:52;8.80;99.90
12870;DHT22;6503;48.572;13.460;2023-03-01T16:13:20;8.70;99.90
12870;DHT22;6503;48.572;13.460;2023-03-01T16:15:59;8.70;99.90
12870;DHT22;6503;48.572;13.460;2023-03-01T16:19:08;8.70;99.90
12870;DHT22;6503;48.572;13.460;2023-03-01T16:22:14;8.60;99.90
12870;DHT22;6503;48.572;13.460;2023-03-01T16:24:50;8.50;99.90
12870;DHT22;6503;48.572;13.460;2023-03-01T16:27:36;8.50;99.90
12870;DHT22;6503;48.572;13.460;2023-03-01T16:30:31;8.40;99.90
12870;DHT22;6503;48.572;13.460;2023-03-01T16:33:05;8.30;99.90
12870;DHT22;6503;48.572;13.460;2023-03-01T16:36:23;8.20;99.90
12870;DHT22;6503;48.572;13.460;2023-03-01T16:39:22;8.10;99.90
12870;DHT22;6503;48.572;13.460;2023-03-01T16:42:14;8.00;99.90
12870;DHT22;6503;48.572;13.460;2023-03-01T16:45:29;8.00;99.90
12870;DHT22;6503;48.572;13.460;2023-03-01T16:48:24;7.90;99.90
12870;DHT22;6503;48.572;13.460;2023-03-01T16:51:11;7.90;99.90
12870;DHT22;6503;48.572;13.460;2023-03-01T16:53:55;7.80;99.90
12870;DHT22;6503;48.572;13.460;2023-03-01T16:56:46;7.80;99.90
12870;DHT22;6503;48.572;13.460;2023-03-01T17:03:03;7.60;99.90
12870;DHT22;6503;48.572;13.460;2023-03-01T17:05:45;7.40;99.90
12870;DHT22;6503;48.572;13.460;2023-03-01T17:08:51;7.40;99.90
12870;DHT22;6503;48.572;13.460;2023-03-01T17:11:40;7.30;99.90
12870;DHT22;6503;48.572;13.460;2023-03-01T17:14:33;7.20;99.90
12870;DHT22;6503;48.572;13.460;2023-03-01T17:17:15;7.10;99.90
12870;DHT22;6503;48.572;13.460;2023-03-01T17:20:13;7.10;99.90
12870;DHT22;6503;48.572;13.460;2023-03-01T17:22:42;6.90;99.90
12870;DHT22;6503;48.572;13.460;2023-03-01T17:25:54;6.90;99.90
12870;DHT22;6503;48.572;13.460;2023-03-01T17:28:37;6.80;99.90
12870;DHT22;6503;48.572;13.460;2023-03-01T17:31:32;6.70;99.90
12870;DHT22;6503;48.572;13.460;2023-03-01T17:33:59;6.80;99.90
12870;DHT22;6503;48.572;13.460;2023-03-01T17:37:04;6.70;99.90
12870;DHT22;6503;48.572;13.460;2023-03-01T17:39:57;6.60;99.90
12870;DHT22;6503;48.572;13.460;2023-03-01T17:42:45;6.60;99.90
12870;DHT22;6503;48.572;13.460;2023-03-01T17:45:15;6.50;99.90
12870;DHT22;6503;48.572;13.460;2023-03-01T17:48:10;6.40;99.90
12870;DHT22;6503;48.572;13.460;2023-03-01T17:50:38;6.40;99.90
12870;DHT22;6503;48.572;13.460;2023-03-01T17:53:29;6.30;99.90
12870;DHT22;6503;48.572;13.460;2023-03-01T17:56:29;6.20;99.90
12870;DHT22;6503;48.572;13.460;2023-03-01T17:59:46;6.20;99.90
12870;DHT22;6503;48.572;13.460;2023-03-01T18:02:25;6.10;99.90
12870;DHT22;6503;48.572;13.460;2023-03-01T18:05:02;6.10;99.90
12870;DHT22;6503;48.572;13.460;2023-03-01T18:07:53;6.10;99.90
12870;DHT22;6503;48.572;13.460;2023-03-01T18:10:41;5.90;99.90
12870;DHT22;6503;48.572;13.460;2023-03-01T18:13:08;6.10;99.90
12870;DHT22;6503;48.572;13.460;2023-03-01T18:15:58;6.00;99.90
12870;DHT22;6503;48.572;13.460;2023-03-01T18:21:57;5.90;99.90
12870;DHT22;6503;48.572;13.460;2023-03-01T18:24:41;5.70;99.90
12870;DHT22;6503;48.572;13.460;2023-03-01T18:27:17;5.80;99.90
12870;DHT22;6503;48.572;13.460;2023-03-01T18:29:44;5.70;99.90
12870;DHT22;6503;48.572;13.460;2023-03-01T18:32:12;5.70;99.90
12870;DHT22;6503;48.572;13.460;2023-03-01T18:34:44;5.50;99.90
12870;DHT22;6503;48.572;13.460;2023-03-01T18:37:26;5.50;99.90
12870;DHT22;6503;48.572;13.460;2023-03-01T18:40:00;5.50;99.90
12870;DHT22;6503;48.572;13.460;2023-03-01T18:42:57;5.50;99.90
12870;DHT22;6503;48.572;13.460;2023-03-01T18:45:34;5.50;99.90
12870;DHT22;6503;48.572;13.460;2023-03-01T18:48:10;5.40;99.90
12870;DHT22;6503;48.572;13.460;2023-03-01T18:51:05;5.50;99.90
12870;DHT22;6503;48.572;13.460;2023-03-01T18:54:05;5.40;99.90
12870;DHT22;6503;48.572;13.460;2023-03-01T18:56:49;5.40;99.90
12870;DHT22;6503;48.572;13.460;2023-03-01T18:59:22;5.40;99.90
12870;DHT22;6503;48.572;13.460;2023-03-01T19:05:07;5.30;99.90
12870;DHT22;6503;48.572;13.460;2023-03-01T19:08:04;5.40;99.90
12870;DHT22;6503;48.572;13.460;2023-03-01T19:10:37;5.40;99.90
12870;DHT22;6503;48.572;13.460;2023-03-01T19:13:41;5.30;99.90
12870;DHT22;6503;48.572;13.460;2023-03-01T19:16:28;5.30;99.90
12870;DHT22;6503;48.572;13.460;2023-03-01T19:19:15;5.30;99.90
12870;DHT22;6503;48.572;13.460;2023-03-01T19:21:57;5.20;99.90
12870;DHT22;6503;48.572;13.460;2023-03-01T19:25:06;5.20;99.90
12870;DHT22;6503;48.572;13.460;2023-03-01T19:27:50;5.20;99.90
12870;DHT22;6503;48.572;13.460;2023-03-01T19:30:27;5.20;99.90
12870;DHT22;6503;48.572;13.460;2023-03-01T19:33:15;5.20;99.90
12870;DHT22;6503;48.572;13.460;2023-03-01T19:36:06;5.20;99.90
12870;DHT22;6503;48.572;13.460;2023-03-01T19:38:46;5.20;99.90
12870;DHT22;6503;48.572;13.460;2023-03-01T19:41:24;5.10;99.90
12870;DHT22;6503;48.572;13.460;2023-03-01T19:43:52;5.10;99.90
12870;DHT22;6503;48.572;13.460;2023-03-01T19:46:25;5.00;99.90
12870;DHT22;6503;48.572;13.460;2023-03-01T19:51:51;5.00;99.90
12870;DHT22;6503;48.572;13.460;2023-03-01T19:54:24;4.90;99.90
12870;DHT22;6503;48.572;13.460;2023-03-01T19:57:07;4.90;99.90
12870;DHT22;6503;48.572;13.460;2023-03-01T20:03:14;4.90;99.90
12870;DHT22;6503;48.572;13.460;2023-03-01T20:06:15;4.90;99.90
12870;DHT22;6503;48.572;13.460;2023-03-01T20:09:24;4.90;99.90
12870;DHT22;6503;48.572;13.460;2023-03-01T20:11:54;4.90;99.90
12870;DHT22;6503;48.572;13.460;2023-03-01T20:14:28;4.90;99.90
12870;DHT22;6503;48.572;13.460;2023-03-01T20:17:01;4.90;99.90